New York, New York
Traffic Map
Current Weather Conditions
New York, New York
Overcast Heavy Rain
Overcast
11°
Feels Like: 11°
Wind Chill: 11° Ceiling: 1200
Heat Index: 11° Visibility: 2mi
Dew Point: Wind: 8mph
Humidity: 89% Direction: 30° (NNE)
Pressure: 29.84in Gusts: 18mph
Raw Report DataKNYC 222300Z AUTO 03007G16KT 340V050 2SM +RA BR BKN012 OVC019 11/09 A2984 RMK AO2 P0004 T01110094 $
Traffic Incident Summary
Active as of:
Severity:
Category:
InformationThere was an issue retrieving the traffic information for this location. Please try a different location or try again shortly.
Advertisements
Track Severe Weather on mobile